createdAt,value
2024-01-07T00:04:47.310Z,3.63
2024-01-07T00:14:49.512Z,3.85
2024-01-07T00:24:51.920Z,4.03
2024-01-07T00:34:56.181Z,3.65
2024-01-07T00:44:58.506Z,3.60
2024-01-07T00:55:01.825Z,3.95
2024-01-07T01:05:04.262Z,3.45
2024-01-07T01:15:06.483Z,3.38
2024-01-07T01:25:08.850Z,3.38
2024-01-07T01:35:11.062Z,3.25
2024-01-07T01:45:13.573Z,3.17
2024-01-07T01:55:16.261Z,3.10
2024-01-07T02:05:18.417Z,2.63
2024-01-07T02:15:21.593Z,2.88
2024-01-07T02:25:23.649Z,3.03
2024-01-07T02:35:25.858Z,2.90
2024-01-07T02:45:28.278Z,2.75
2024-01-07T02:55:30.556Z,2.85
2024-01-07T03:05:34.292Z,2.65
2024-01-07T03:15:36.544Z,2.55
2024-01-07T03:25:38.698Z,2.45
2024-01-07T03:35:40.905Z,2.55
2024-01-07T03:45:44.747Z,2.20
2024-01-07T03:55:46.966Z,2.58
2024-01-07T04:05:49.047Z,2.33
2024-01-07T04:15:51.307Z,2.30
2024-01-07T04:25:53.492Z,2.28
2024-01-07T04:35:59.586Z,2.40
2024-01-07T04:46:01.769Z,2.20
2024-01-07T04:56:04.173Z,2.15
2024-01-07T05:06:06.520Z,2.25
2024-01-07T05:16:08.928Z,2.13
2024-01-07T05:26:11.108Z,2.10
2024-01-07T05:36:13.963Z,2.10
2024-01-07T05:46:16.356Z,1.80
2024-01-07T05:56:18.517Z,2.10
2024-01-07T06:06:20.783Z,2.10
2024-01-07T06:16:23.144Z,2.10
2024-01-07T06:26:25.499Z,1.80
2024-01-07T06:36:27.667Z,2.13
2024-01-07T06:46:30.081Z,2.00
2024-01-07T06:56:32.946Z,2.20
2024-01-07T07:06:36.090Z,2.20
2024-01-07T07:16:38.201Z,1.83
2024-01-07T07:26:42.281Z,2.20
2024-01-07T07:36:46.437Z,2.05
2024-01-07T07:46:48.815Z,2.30
2024-01-07T07:56:50.879Z,2.30
2024-01-07T08:06:54.113Z,2.90
2024-01-07T08:16:56.309Z,2.80
2024-01-07T08:26:58.784Z,3.30
2024-01-07T08:37:01.564Z,3.47
2024-01-07T08:47:03.796Z,3.60
2024-01-07T08:57:06.132Z,4.43
2024-01-07T09:07:08.348Z,5.03
2024-01-07T09:17:10.613Z,4.50
2024-01-07T09:27:13.173Z,4.75
2024-01-07T09:37:18.124Z,4.82
2024-01-07T09:47:21.705Z,5.60
2024-01-07T09:57:23.929Z,5.10
2024-01-07T10:07:27.204Z,5.68
2024-01-07T10:17:29.640Z,5.10
2024-01-07T10:27:35.053Z,5.03
2024-01-07T10:37:37.688Z,4.70
2024-01-07T10:47:43.407Z,4.93
2024-01-07T10:57:50.627Z,4.38
2024-01-07T11:08:21.760Z,3.70
2024-01-07T11:18:24.990Z,4.15
2024-01-07T11:28:59.909Z,3.70
2024-01-07T11:39:03.682Z,3.72
2024-01-07T11:49:06.756Z,3.40
2024-01-07T11:59:09.793Z,3.33
2024-01-07T12:09:15.408Z,2.80
2024-01-07T12:19:18.737Z,2.70
2024-01-07T12:29:21.181Z,2.30
2024-01-07T12:39:27.362Z,2.28
2024-01-07T12:49:30.964Z,2.53
2024-01-07T12:59:33.089Z,2.45
2024-01-07T13:09:35.485Z,2.38
2024-01-07T13:19:37.778Z,1.98
2024-01-07T13:29:40.161Z,2.03
2024-01-07T13:39:43.049Z,1.95
2024-01-07T13:49:48.280Z,1.75
2024-01-07T13:59:50.412Z,1.63
2024-01-07T14:09:53.389Z,1.50
2024-01-07T14:19:55.794Z,1.40
2024-01-07T14:29:59.756Z,1.50
2024-01-07T14:40:01.788Z,1.30
2024-01-07T14:50:06.835Z,1.35
2024-01-07T15:00:10.855Z,1.13
2024-01-07T15:10:16.554Z,1.10
2024-01-07T15:20:18.785Z,1.25
2024-01-07T15:30:20.852Z,1.45
2024-01-07T15:40:23.376Z,1.48
2024-01-07T15:50:25.643Z,1.40
2024-01-07T16:00:27.748Z,1.50
2024-01-07T16:10:29.773Z,1.20
2024-01-07T16:20:32.056Z,1.45
2024-01-07T16:30:35.340Z,1.30
2024-01-07T16:40:38.266Z,1.40
2024-01-07T16:50:40.700Z,1.50
2024-01-07T17:00:42.881Z,1.17
2024-01-07T17:10:47.767Z,1.50
2024-01-07T17:20:50.507Z,1.10
2024-01-07T17:30:53.140Z,1.30
2024-01-07T17:40:55.284Z,1.30
2024-01-07T17:51:04.293Z,1.38
2024-01-07T18:01:11.080Z,1.17
2024-01-07T18:11:13.205Z,1.70
2024-01-07T18:21:16.588Z,1.95
2024-01-07T18:31:18.897Z,2.67
2024-01-07T18:41:23.613Z,2.20
2024-01-07T18:51:26.716Z,2.35
2024-01-07T19:01:29.071Z,2.05
2024-01-07T19:11:31.207Z,2.45
2024-01-07T19:21:33.303Z,2.17
2024-01-07T19:31:36.540Z,2.33
2024-01-07T19:41:39.128Z,2.25
2024-01-07T19:51:41.521Z,2.30
2024-01-07T20:01:43.720Z,2.30
2024-01-07T20:11:45.593Z,2.40
2024-01-07T20:21:49.422Z,2.35
2024-01-07T20:31:51.722Z,2.38
2024-01-07T20:41:53.793Z,2.78
2024-01-07T20:51:55.899Z,3.03
2024-01-07T21:01:58.016Z,3.20
2024-01-07T21:12:02.041Z,3.08
2024-01-07T21:22:04.057Z,3.00
2024-01-07T21:32:06.648Z,2.97
2024-01-07T21:42:08.693Z,2.90
2024-01-07T21:52:10.747Z,3.30
2024-01-07T22:02:12.973Z,3.08
2024-01-07T22:12:14.972Z,3.58
2024-01-07T22:22:18.791Z,3.13
2024-01-07T22:32:20.737Z,3.35
2024-01-07T22:42:22.747Z,3.42
2024-01-07T22:52:25.338Z,3.70
2024-01-07T23:02:27.415Z,3.40
2024-01-07T23:12:29.676Z,3.63
2024-01-07T23:32:34.084Z,3.83
2024-01-07T23:42:36.245Z,3.83
2024-01-07T23:52:40.970Z,4.07
